sensor_id;sensor_type;location;lat;lon;timestamp;pressure;altitude;pressure_sealevel;temperature;humidity
13690;BME280;6917;52.194;9.894;2023-04-22T00:01:16;99913.91;;;10.19;80.17
13690;BME280;6917;52.194;9.894;2023-04-22T00:03:42;99913.41;;;10.17;80.53
13690;BME280;6917;52.194;9.894;2023-04-22T00:06:09;99917.13;;;10.21;80.51
13690;BME280;6917;52.194;9.894;2023-04-22T00:08:34;99906.34;;;10.16;80.44
13690;BME280;6917;52.194;9.894;2023-04-22T00:10:59;99899.28;;;10.15;80.51
13690;BME280;6917;52.194;9.894;2023-04-22T00:13:25;99895.91;;;10.09;80.41
13690;BME280;6917;52.194;9.894;2023-04-22T00:15:50;99887.06;;;9.95;80.75
13690;BME280;6917;52.194;9.894;2023-04-22T00:18:15;99887.25;;;9.90;80.88
13690;BME280;6917;52.194;9.894;2023-04-22T00:20:42;99881.00;;;9.90;80.92
13690;BME280;6917;52.194;9.894;2023-04-22T00:23:08;99888.38;;;9.89;81.11
13690;BME280;6917;52.194;9.894;2023-04-22T00:25:34;99894.47;;;9.86;81.28
13690;BME280;6917;52.194;9.894;2023-04-22T00:27:59;99882.09;;;9.63;82.04
13690;BME280;6917;52.194;9.894;2023-04-22T00:30:24;99884.13;;;9.48;83.30
13690;BME280;6917;52.194;9.894;2023-04-22T00:32:50;99877.41;;;9.46;83.51
13690;BME280;6917;52.194;9.894;2023-04-22T00:35:15;99875.97;;;9.48;83.93
13690;BME280;6917;52.194;9.894;2023-04-22T00:37:41;99876.91;;;9.52;83.26
13690;BME280;6917;52.194;9.894;2023-04-22T00:40:06;99879.03;;;9.56;83.65
13690;BME280;6917;52.194;9.894;2023-04-22T00:42:32;99869.38;;;9.49;83.48
13690;BME280;6917;52.194;9.894;2023-04-22T00:44:57;99865.53;;;9.50;83.44
13690;BME280;6917;52.194;9.894;2023-04-22T00:47:24;99868.41;;;9.54;83.91
13690;BME280;6917;52.194;9.894;2023-04-22T00:49:52;99867.81;;;9.57;84.14
13690;BME280;6917;52.194;9.894;2023-04-22T00:52:17;99873.38;;;9.52;84.07
13690;BME280;6917;52.194;9.894;2023-04-22T00:54:43;99873.38;;;9.43;84.71
13690;BME280;6917;52.194;9.894;2023-04-22T00:57:08;99875.59;;;9.33;85.38
13690;BME280;6917;52.194;9.894;2023-04-22T00:59:34;99874.31;;;9.30;85.67
13690;BME280;6917;52.194;9.894;2023-04-22T01:02:00;99867.75;;;9.31;85.79
13690;BME280;6917;52.194;9.894;2023-04-22T01:04:25;99871.44;;;9.27;86.33
13690;BME280;6917;52.194;9.894;2023-04-22T01:06:51;99883.31;;;9.31;86.56
13690;BME280;6917;52.194;9.894;2023-04-22T01:09:18;99875.28;;;9.34;86.69
13690;BME280;6917;52.194;9.894;2023-04-22T01:11:45;99866.91;;;9.22;86.66
13690;BME280;6917;52.194;9.894;2023-04-22T01:14:10;99873.34;;;9.26;86.69
13690;BME280;6917;52.194;9.894;2023-04-22T01:16:36;99872.84;;;9.24;86.39
13690;BME280;6917;52.194;9.894;2023-04-22T01:19:03;99869.16;;;9.20;86.24
13690;BME280;6917;52.194;9.894;2023-04-22T01:21:29;99867.06;;;9.17;86.87
13690;BME280;6917;52.194;9.894;2023-04-22T01:23:58;99873.81;;;9.19;87.31
13690;BME280;6917;52.194;9.894;2023-04-22T01:26:23;99874.16;;;9.27;86.87
13690;BME280;6917;52.194;9.894;2023-04-22T01:28:49;99876.88;;;9.35;86.93
13690;BME280;6917;52.194;9.894;2023-04-22T01:31:15;99867.53;;;9.19;87.19
13690;BME280;6917;52.194;9.894;2023-04-22T01:33:40;99867.59;;;8.88;87.72
13690;BME280;6917;52.194;9.894;2023-04-22T01:36:06;99868.97;;;8.77;88.88
13690;BME280;6917;52.194;9.894;2023-04-22T01:38:31;99876.56;;;8.88;88.96
13690;BME280;6917;52.194;9.894;2023-04-22T01:40:59;99869.75;;;9.08;88.84
13690;BME280;6917;52.194;9.894;2023-04-22T01:43:25;99864.34;;;9.17;88.15
13690;BME280;6917;52.194;9.894;2023-04-22T01:45:50;99869.19;;;9.29;88.02
13690;BME280;6917;52.194;9.894;2023-04-22T01:48:16;99865.81;;;9.32;87.83
13690;BME280;6917;52.194;9.894;2023-04-22T01:50:41;99865.03;;;9.31;87.58
13690;BME280;6917;52.194;9.894;2023-04-22T01:53:07;99863.75;;;9.37;87.61
13690;BME280;6917;52.194;9.894;2023-04-22T01:55:32;99858.59;;;9.36;86.82
13690;BME280;6917;52.194;9.894;2023-04-22T01:58:00;99862.28;;;9.40;86.81
13690;BME280;6917;52.194;9.894;2023-04-22T02:00:25;99864.94;;;9.05;87.57
13690;BME280;6917;52.194;9.894;2023-04-22T02:02:50;99866.59;;;9.15;88.08
13690;BME280;6917;52.194;9.894;2023-04-22T02:05:17;99865.78;;;9.23;87.42
13690;BME280;6917;52.194;9.894;2023-04-22T02:07:42;99867.25;;;9.29;87.14
13690;BME280;6917;52.194;9.894;2023-04-22T02:10:08;99857.56;;;9.06;87.28
13690;BME280;6917;52.194;9.894;2023-04-22T02:12:33;99864.50;;;9.20;87.70
13690;BME280;6917;52.194;9.894;2023-04-22T02:14:59;99862.94;;;9.28;87.37
13690;BME280;6917;52.194;9.894;2023-04-22T02:17:25;99861.13;;;9.15;87.48
13690;BME280;6917;52.194;9.894;2023-04-22T02:19:50;99860.34;;;9.14;87.60
13690;BME280;6917;52.194;9.894;2023-04-22T02:22:16;99859.00;;;9.03;87.67
13690;BME280;6917;52.194;9.894;2023-04-22T02:24:41;99851.47;;;9.09;87.96
13690;BME280;6917;52.194;9.894;2023-04-22T02:27:07;99848.31;;;9.15;87.22
13690;BME280;6917;52.194;9.894;2023-04-22T02:29:33;99837.84;;;9.09;87.83
13690;BME280;6917;52.194;9.894;2023-04-22T02:31:59;99847.34;;;9.20;87.20
13690;BME280;6917;52.194;9.894;2023-04-22T02:34:24;99847.34;;;9.20;87.17
13690;BME280;6917;52.194;9.894;2023-04-22T02:36:50;99853.13;;;9.18;87.28
13690;BME280;6917;52.194;9.894;2023-04-22T02:39:15;99847.66;;;9.18;87.50
13690;BME280;6917;52.194;9.894;2023-04-22T02:41:40;99851.84;;;9.24;86.93
13690;BME280;6917;52.194;9.894;2023-04-22T02:44:06;99852.50;;;9.30;86.83
13690;BME280;6917;52.194;9.894;2023-04-22T02:46:31;99845.31;;;9.43;86.39
13690;BME280;6917;52.194;9.894;2023-04-22T02:48:56;99846.59;;;9.45;85.85
13690;BME280;6917;52.194;9.894;2023-04-22T02:51:22;99852.38;;;9.44;85.60
13690;BME280;6917;52.194;9.894;2023-04-22T02:53:47;99837.16;;;9.43;85.73
13690;BME280;6917;52.194;9.894;2023-04-22T02:56:12;99839.81;;;9.25;85.43
13690;BME280;6917;52.194;9.894;2023-04-22T02:58:37;99845.91;;;9.22;85.95
13690;BME280;6917;52.194;9.894;2023-04-22T03:01:03;99847.34;;;9.11;86.70
13690;BME280;6917;52.194;9.894;2023-04-22T03:03:28;99845.88;;;9.05;87.00
13690;BME280;6917;52.194;9.894;2023-04-22T03:05:53;99844.63;;;9.11;86.80
13690;BME280;6917;52.194;9.894;2023-04-22T03:08:19;99845.06;;;9.05;87.31
13690;BME280;6917;52.194;9.894;2023-04-22T03:10:44;99845.53;;;9.07;87.32
13690;BME280;6917;52.194;9.894;2023-04-22T03:13:11;99845.41;;;9.12;87.30
13690;BME280;6917;52.194;9.894;2023-04-22T03:15:39;99837.72;;;9.14;86.94
13690;BME280;6917;52.194;9.894;2023-04-22T03:18:04;99846.81;;;9.09;86.59
13690;BME280;6917;52.194;9.894;2023-04-22T03:20:29;99844.09;;;9.01;86.84
13690;BME280;6917;52.194;9.894;2023-04-22T03:22:55;99847.78;;;8.65;87.39
13690;BME280;6917;52.194;9.894;2023-04-22T03:25:20;99844.00;;;8.44;88.76
13690;BME280;6917;52.194;9.894;2023-04-22T03:27:45;99845.22;;;8.38;90.28
13690;BME280;6917;52.194;9.894;2023-04-22T03:30:11;99845.97;;;8.29;91.20
13690;BME280;6917;52.194;9.894;2023-04-22T03:32:36;99848.06;;;8.32;91.84
13690;BME280;6917;52.194;9.894;2023-04-22T03:35:02;99844.19;;;8.25;92.43
13690;BME280;6917;52.194;9.894;2023-04-22T03:37:27;99843.88;;;8.26;93.06
13690;BME280;6917;52.194;9.894;2023-04-22T03:39:52;99836.56;;;8.35;93.70
13690;BME280;6917;52.194;9.894;2023-04-22T03:42:18;99841.91;;;8.41;92.83
13690;BME280;6917;52.194;9.894;2023-04-22T03:44:43;99844.94;;;8.39;93.03
13690;BME280;6917;52.194;9.894;2023-04-22T03:47:08;99825.25;;;8.42;92.95
13690;BME280;6917;52.194;9.894;2023-04-22T03:49:34;99836.50;;;8.49;92.73
13690;BME280;6917;52.194;9.894;2023-04-22T03:51:59;99838.78;;;8.56;92.67
13690;BME280;6917;52.194;9.894;2023-04-22T03:54:25;99846.53;;;8.71;91.78
13690;BME280;6917;52.194;9.894;2023-04-22T03:56:51;99842.56;;;8.77;91.12
13690;BME280;6917;52.194;9.894;2023-04-22T03:59:16;99832.94;;;8.80;90.55
13690;BME280;6917;52.194;9.894;2023-04-22T04:01:42;99834.44;;;8.94;89.88
13690;BME280;6917;52.194;9.894;2023-04-22T04:04:07;99825.16;;;8.95;89.28
13690;BME280;6917;52.194;9.894;2023-04-22T04:06:33;99826.75;;;8.97;89.08
13690;BME280;6917;52.194;9.894;2023-04-22T04:08:58;99822.13;;;8.97;88.78
13690;BME280;6917;52.194;9.894;2023-04-22T04:11:23;99817.63;;;8.92;89.35
13690;BME280;6917;52.194;9.894;2023-04-22T04:13:48;99830.59;;;8.95;88.79
13690;BME280;6917;52.194;9.894;2023-04-22T04:16:14;99829.31;;;8.93;88.91
13690;BME280;6917;52.194;9.894;2023-04-22T04:18:40;99829.47;;;8.97;88.51
13690;BME280;6917;52.194;9.894;2023-04-22T04:21:06;99839.56;;;8.96;88.82
13690;BME280;6917;52.194;9.894;2023-04-22T04:23:31;99835.75;;;8.97;88.96
13690;BME280;6917;52.194;9.894;2023-04-22T04:25:56;99831.59;;;9.00;89.44
13690;BME280;6917;52.194;9.894;2023-04-22T04:28:22;99825.81;;;9.01;88.77
13690;BME280;6917;52.194;9.894;2023-04-22T04:30:47;99831.88;;;8.89;89.14
13690;BME280;6917;52.194;9.894;2023-04-22T04:33:12;99833.78;;;8.89;89.22
13690;BME280;6917;52.194;9.894;2023-04-22T04:35:41;99834.91;;;8.88;89.64
13690;BME280;6917;52.194;9.894;2023-04-22T04:38:07;99836.03;;;8.87;90.00
13690;BME280;6917;52.194;9.894;2023-04-22T04:40:33;99826.91;;;8.91;89.48
13690;BME280;6917;52.194;9.894;2023-04-22T04:43:00;99825.47;;;8.94;89.90
13690;BME280;6917;52.194;9.894;2023-04-22T04:45:28;99824.81;;;8.88;89.68
13690;BME280;6917;52.194;9.894;2023-04-22T04:47:54;99821.31;;;8.97;89.88
13690;BME280;6917;52.194;9.894;2023-04-22T04:50:20;99822.13;;;8.97;90.00
13690;BME280;6917;52.194;9.894;2023-04-22T04:52:46;99824.84;;;8.97;90.06
13690;BME280;6917;52.194;9.894;2023-04-22T04:55:13;99823.25;;;9.05;90.70
13690;BME280;6917;52.194;9.894;2023-04-22T04:57:39;99814.97;;;9.18;90.37
13690;BME280;6917;52.194;9.894;2023-04-22T05:00:04;99816.28;;;9.30;89.62
13690;BME280;6917;52.194;9.894;2023-04-22T05:02:30;99819.50;;;9.40;89.86
13690;BME280;6917;52.194;9.894;2023-04-22T05:04:55;99823.69;;;9.55;89.28
13690;BME280;6917;52.194;9.894;2023-04-22T05:07:20;99815.19;;;9.65;88.71
13690;BME280;6917;52.194;9.894;2023-04-22T05:09:46;99816.16;;;9.78;87.92
13690;BME280;6917;52.194;9.894;2023-04-22T05:12:11;99824.97;;;9.92;87.38
13690;BME280;6917;52.194;9.894;2023-04-22T05:14:36;99824.00;;;10.05;87.10
13690;BME280;6917;52.194;9.894;2023-04-22T05:17:02;99818.34;;;10.19;86.96
13690;BME280;6917;52.194;9.894;2023-04-22T05:19:27;99815.94;;;10.35;86.38
13690;BME280;6917;52.194;9.894;2023-04-22T05:21:52;99811.09;;;10.49;86.06
13690;BME280;6917;52.194;9.894;2023-04-22T05:24:18;99813.28;;;10.64;85.27
13690;BME280;6917;52.194;9.894;2023-04-22T05:26:43;99809.19;;;10.79;84.74
13690;BME280;6917;52.194;9.894;2023-04-22T05:29:08;99811.38;;;10.94;84.08
13690;BME280;6917;52.194;9.894;2023-04-22T05:31:33;99810.81;;;11.10;83.62
13690;BME280;6917;52.194;9.894;2023-04-22T05:33:59;99813.44;;;11.27;83.26
13690;BME280;6917;52.194;9.894;2023-04-22T05:36:24;99816.59;;;11.38;82.48
13690;BME280;6917;52.194;9.894;2023-04-22T05:38:51;99828.56;;;11.54;81.90
13690;BME280;6917;52.194;9.894;2023-04-22T05:41:16;99811.00;;;11.76;80.04
13690;BME280;6917;52.194;9.894;2023-04-22T05:43:42;99811.34;;;11.95;78.57
13690;BME280;6917;52.194;9.894;2023-04-22T05:46:07;99810.25;;;12.08;77.29
13690;BME280;6917;52.194;9.894;2023-04-22T05:48:32;99814.88;;;12.16;76.15
13690;BME280;6917;52.194;9.894;2023-04-22T05:50:57;99805.75;;;12.25;75.71
13690;BME280;6917;52.194;9.894;2023-04-22T05:53:23;99811.50;;;12.32;75.78
13690;BME280;6917;52.194;9.894;2023-04-22T05:55:49;99810.25;;;12.41;75.64
13690;BME280;6917;52.194;9.894;2023-04-22T05:58:14;99819.53;;;12.49;75.52
13690;BME280;6917;52.194;9.894;2023-04-22T06:00:39;99815.06;;;12.57;74.49
13690;BME280;6917;52.194;9.894;2023-04-22T06:03:05;99809.94;;;12.67;74.13
13690;BME280;6917;52.194;9.894;2023-04-22T06:05:30;99812.47;;;12.85;74.22
13690;BME280;6917;52.194;9.894;2023-04-22T06:07:55;99805.75;;;12.94;73.44
13690;BME280;6917;52.194;9.894;2023-04-22T06:10:21;99811.22;;;13.06;73.29
13690;BME280;6917;52.194;9.894;2023-04-22T06:12:46;99798.44;;;13.23;72.51
13690;BME280;6917;52.194;9.894;2023-04-22T06:15:11;99799.59;;;13.34;71.46
13690;BME280;6917;52.194;9.894;2023-04-22T06:17:37;99800.94;;;13.40;71.08
13690;BME280;6917;52.194;9.894;2023-04-22T06:20:03;99797.38;;;13.52;70.61
13690;BME280;6917;52.194;9.894;2023-04-22T06:22:28;99807.44;;;13.60;69.48
13690;BME280;6917;52.194;9.894;2023-04-22T06:24:54;99796.72;;;13.70;69.02
13690;BME280;6917;52.194;9.894;2023-04-22T06:27:19;99793.59;;;13.84;69.43
13690;BME280;6917;52.194;9.894;2023-04-22T06:29:44;99790.38;;;13.94;68.77
13690;BME280;6917;52.194;9.894;2023-04-22T06:32:10;99794.31;;;14.09;68.02
13690;BME280;6917;52.194;9.894;2023-04-22T06:34:35;99798.81;;;14.17;67.71
13690;BME280;6917;52.194;9.894;2023-04-22T06:37:02;99781.84;;;14.27;66.56
13690;BME280;6917;52.194;9.894;2023-04-22T06:39:28;99791.97;;;14.39;67.02
13690;BME280;6917;52.194;9.894;2023-04-22T06:41:53;99782.53;;;14.52;66.28
13690;BME280;6917;52.194;9.894;2023-04-22T06:44:18;99785.53;;;14.79;65.63
13690;BME280;6917;52.194;9.894;2023-04-22T06:46:44;99779.94;;;14.75;65.19
13690;BME280;6917;52.194;9.894;2023-04-22T06:49:10;99771.88;;;14.82;65.53
13690;BME280;6917;52.194;9.894;2023-04-22T06:51:35;99766.81;;;14.84;65.06
13690;BME280;6917;52.194;9.894;2023-04-22T06:54:01;99763.53;;;14.95;65.33
13690;BME280;6917;52.194;9.894;2023-04-22T06:56:26;99762.25;;;15.08;64.96
13690;BME280;6917;52.194;9.894;2023-04-22T06:58:51;99760.44;;;15.15;64.59
13690;BME280;6917;52.194;9.894;2023-04-22T07:01:17;99773.38;;;15.31;65.51
13690;BME280;6917;52.194;9.894;2023-04-22T07:03:42;99775.22;;;15.42;65.17
13690;BME280;6917;52.194;9.894;2023-04-22T07:06:08;99761.38;;;15.39;63.19
13690;BME280;6917;52.194;9.894;2023-04-22T07:08:34;99762.78;;;15.48;63.26
13690;BME280;6917;52.194;9.894;2023-04-22T07:10:59;99767.97;;;15.54;63.14
13690;BME280;6917;52.194;9.894;2023-04-22T07:13:24;99775.44;;;15.53;62.66
13690;BME280;6917;52.194;9.894;2023-04-22T07:15:51;99776.06;;;15.62;63.60
13690;BME280;6917;52.194;9.894;2023-04-22T07:18:16;99767.94;;;15.69;63.42
13690;BME280;6917;52.194;9.894;2023-04-22T07:20:44;99760.53;;;15.73;63.02
13690;BME280;6917;52.194;9.894;2023-04-22T07:23:09;99761.94;;;15.83;63.04
13690;BME280;6917;52.194;9.894;2023-04-22T07:25:35;99748.88;;;15.80;61.80
13690;BME280;6917;52.194;9.894;2023-04-22T07:28:00;99745.47;;;15.87;62.04
13690;BME280;6917;52.194;9.894;2023-04-22T07:30:29;99755.41;;;15.91;62.76
13690;BME280;6917;52.194;9.894;2023-04-22T07:32:54;99771.50;;;16.09;64.04
13690;BME280;6917;52.194;9.894;2023-04-22T07:35:19;99771.19;;;16.14;64.29
13690;BME280;6917;52.194;9.894;2023-04-22T07:37:44;99756.44;;;16.25;62.46
13690;BME280;6917;52.194;9.894;2023-04-22T07:40:10;99758.09;;;16.30;62.05
13690;BME280;6917;52.194;9.894;2023-04-22T07:42:38;99750.38;;;16.39;61.58
13690;BME280;6917;52.194;9.894;2023-04-22T07:45:05;99752.06;;;16.47;62.19
13690;BME280;6917;52.194;9.894;2023-04-22T07:47:30;99739.53;;;16.50;60.93
13690;BME280;6917;52.194;9.894;2023-04-22T07:49:56;99737.88;;;16.45;60.65
13690;BME280;6917;52.194;9.894;2023-04-22T07:52:21;99754.00;;;16.43;61.30
13690;BME280;6917;52.194;9.894;2023-04-22T07:54:46;99759.56;;;16.47;61.39
13690;BME280;6917;52.194;9.894;2023-04-22T07:57:11;99755.34;;;16.53;61.21
13690;BME280;6917;52.194;9.894;2023-04-22T07:59:37;99759.16;;;16.68;61.28
13690;BME280;6917;52.194;9.894;2023-04-22T08:02:02;99754.13;;;16.73;61.17
13690;BME280;6917;52.194;9.894;2023-04-22T08:04:28;99744.94;;;16.92;61.56
13690;BME280;6917;52.194;9.894;2023-04-22T08:06:53;99733.06;;;16.88;59.91
13690;BME280;6917;52.194;9.894;2023-04-22T08:09:19;99750.69;;;17.06;60.77
13690;BME280;6917;52.194;9.894;2023-04-22T08:11:45;99758.06;;;17.25;61.52
13690;BME280;6917;52.194;9.894;2023-04-22T08:14:10;99737.34;;;17.38;59.54
13690;BME280;6917;52.194;9.894;2023-04-22T08:16:36;99729.06;;;17.38;58.58
13690;BME280;6917;52.194;9.894;2023-04-22T08:19:02;99731.94;;;17.49;58.84
13690;BME280;6917;52.194;9.894;2023-04-22T08:21:27;99736.06;;;17.62;58.75
13690;BME280;6917;52.194;9.894;2023-04-22T08:23:53;99729.88;;;17.69;58.60
13690;BME280;6917;52.194;9.894;2023-04-22T08:26:19;99737.22;;;17.91;59.03
13690;BME280;6917;52.194;9.894;2023-04-22T08:28:44;99723.47;;;17.95;57.69
13690;BME280;6917;52.194;9.894;2023-04-22T08:31:10;99730.28;;;18.08;58.67
13690;BME280;6917;52.194;9.894;2023-04-22T08:33:39;99726.03;;;18.14;57.96
13690;BME280;6917;52.194;9.894;2023-04-22T08:36:04;99717.06;;;18.28;57.29
13690;BME280;6917;52.194;9.894;2023-04-22T08:38:30;99719.88;;;18.35;56.69
13690;BME280;6917;52.194;9.894;2023-04-22T08:40:55;99721.53;;;18.39;57.01
13690;BME280;6917;52.194;9.894;2023-04-22T08:43:21;99718.81;;;18.47;56.54
13690;BME280;6917;52.194;9.894;2023-04-22T08:45:47;99712.47;;;18.42;56.90
13690;BME280;6917;52.194;9.894;2023-04-22T08:48:14;99729.88;;;18.47;57.28
13690;BME280;6917;52.194;9.894;2023-04-22T08:50:40;99713.72;;;18.52;56.64
13690;BME280;6917;52.194;9.894;2023-04-22T08:53:05;99722.88;;;18.60;55.87
13690;BME280;6917;52.194;9.894;2023-04-22T08:55:31;99719.34;;;18.63;55.55
13690;BME280;6917;52.194;9.894;2023-04-22T08:57:59;99732.47;;;18.69;56.74
13690;BME280;6917;52.194;9.894;2023-04-22T09:00:24;99722.59;;;18.72;56.95
13690;BME280;6917;52.194;9.894;2023-04-22T09:02:54;99720.34;;;18.88;56.86
13690;BME280;6917;52.194;9.894;2023-04-22T09:05:27;99704.13;;;18.83;55.76
13690;BME280;6917;52.194;9.894;2023-04-22T09:07:54;99722.81;;;19.00;56.42
13690;BME280;6917;52.194;9.894;2023-04-22T09:10:19;99709.44;;;19.10;56.11
13690;BME280;6917;52.194;9.894;2023-04-22T09:12:59;99701.53;;;19.15;55.76
13690;BME280;6917;52.194;9.894;2023-04-22T09:15:33;99697.59;;;19.20;54.11
13690;BME280;6917;52.194;9.894;2023-04-22T09:17:58;99700.81;;;19.29;54.97
13690;BME280;6917;52.194;9.894;2023-04-22T09:20:30;99697.28;;;19.36;55.32
13690;BME280;6917;52.194;9.894;2023-04-22T09:23:07;99695.72;;;19.42;53.72
13690;BME280;6917;52.194;9.894;2023-04-22T09:25:37;99696.59;;;19.53;53.48
13690;BME280;6917;52.194;9.894;2023-04-22T09:28:02;99699.34;;;19.53;53.95
13690;BME280;6917;52.194;9.894;2023-04-22T09:30:32;99691.03;;;19.53;53.32
13690;BME280;6917;52.194;9.894;2023-04-22T09:33:06;99677.63;;;19.58;53.05
13690;BME280;6917;52.194;9.894;2023-04-22T09:35:41;99690.72;;;19.72;53.69
13690;BME280;6917;52.194;9.894;2023-04-22T09:38:13;99678.06;;;19.75;53.74
13690;BME280;6917;52.194;9.894;2023-04-22T09:40:45;99674.88;;;19.80;53.41
13690;BME280;6917;52.194;9.894;2023-04-22T09:43:10;99684.44;;;19.93;54.11
13690;BME280;6917;52.194;9.894;2023-04-22T09:45:43;99695.53;;;20.07;54.42
13690;BME280;6917;52.194;9.894;2023-04-22T09:48:17;99685.28;;;20.15;52.83
13690;BME280;6917;52.194;9.894;2023-04-22T09:50:50;99672.22;;;20.30;51.99
13690;BME280;6917;52.194;9.894;2023-04-22T09:53:20;99663.88;;;20.30;52.01
13690;BME280;6917;52.194;9.894;2023-04-22T09:55:59;99674.97;;;20.23;52.63
13690;BME280;6917;52.194;9.894;2023-04-22T09:58:31;99658.34;;;20.40;51.16
13690;BME280;6917;52.194;9.894;2023-04-22T10:03:40;99651.59;;;20.34;50.58
13690;BME280;6917;52.194;9.894;2023-04-22T10:06:06;99655.97;;;20.49;51.00
13690;BME280;6917;52.194;9.894;2023-04-22T10:08:32;99644.09;;;20.56;49.59
13690;BME280;6917;52.194;9.894;2023-04-22T10:11:00;99646.03;;;20.70;50.24
13690;BME280;6917;52.194;9.894;2023-04-22T10:13:28;99636.50;;;20.78;48.87
13690;BME280;6917;52.194;9.894;2023-04-22T10:16:12;99626.59;;;20.84;47.91
13690;BME280;6917;52.194;9.894;2023-04-22T10:18:50;99625.78;;;20.76;48.26
13690;BME280;6917;52.194;9.894;2023-04-22T10:21:35;99623.75;;;20.98;48.25
13690;BME280;6917;52.194;9.894;2023-04-22T10:24:02;99639.16;;;21.21;48.78
13690;BME280;6917;52.194;9.894;2023-04-22T10:26:58;99623.22;;;21.39;47.41
13690;BME280;6917;52.194;9.894;2023-04-22T10:29:37;99617.25;;;21.41;46.61
13690;BME280;6917;52.194;9.894;2023-04-22T10:32:25;99614.50;;;21.37;46.71
13690;BME280;6917;52.194;9.894;2023-04-22T10:35:25;99628.38;;;21.44;47.42
13690;BME280;6917;52.194;9.894;2023-04-22T10:38:02;99628.63;;;21.71;47.77
13690;BME280;6917;52.194;9.894;2023-04-22T10:41:02;99625.03;;;21.71;46.03
13690;BME280;6917;52.194;9.894;2023-04-22T10:49:13;99613.47;;;21.76;46.84
13690;BME280;6917;52.194;9.894;2023-04-22T10:51:50;99628.16;;;21.80;48.26
13690;BME280;6917;52.194;9.894;2023-04-22T10:57:19;99638.84;;;21.81;46.92
13690;BME280;6917;52.194;9.894;2023-04-22T10:59:53;99620.84;;;21.41;46.88
13690;BME280;6917;52.194;9.894;2023-04-22T11:02:19;99601.06;;;21.18;46.34
13690;BME280;6917;52.194;9.894;2023-04-22T11:04:48;99612.94;;;21.32;47.60
13690;BME280;6917;52.194;9.894;2023-04-22T11:09:46;99605.41;;;21.19;47.03
13690;BME280;6917;52.194;9.894;2023-04-22T11:15:08;99609.66;;;21.52;47.70
13690;BME280;6917;52.194;9.894;2023-04-22T11:17:39;99605.97;;;21.69;47.44
13690;BME280;6917;52.194;9.894;2023-04-22T11:20:15;99596.75;;;21.79;47.25
13690;BME280;6917;52.194;9.894;2023-04-22T11:22:50;99589.22;;;21.80;47.10
13690;BME280;6917;52.194;9.894;2023-04-22T11:25:19;99592.66;;;21.98;47.66
13690;BME280;6917;52.194;9.894;2023-04-22T11:27:51;99589.56;;;21.89;47.61
13690;BME280;6917;52.194;9.894;2023-04-22T11:30:19;99588.66;;;22.06;47.35
13690;BME280;6917;52.194;9.894;2023-04-22T11:32:55;99598.03;;;22.23;47.84
13690;BME280;6917;52.194;9.894;2023-04-22T11:35:34;99586.81;;;22.34;46.60
13690;BME280;6917;52.194;9.894;2023-04-22T11:38:04;99579.06;;;22.52;46.59
13690;BME280;6917;52.194;9.894;2023-04-22T11:40:40;99580.66;;;22.53;46.45
13690;BME280;6917;52.194;9.894;2023-04-22T11:43:13;99576.66;;;22.54;46.53
13690;BME280;6917;52.194;9.894;2023-04-22T11:45:39;99578.59;;;22.61;46.59
13690;BME280;6917;52.194;9.894;2023-04-22T11:48:07;99576.25;;;22.55;46.15
13690;BME280;6917;52.194;9.894;2023-04-22T11:50:35;99575.91;;;22.50;46.75
13690;BME280;6917;52.194;9.894;2023-04-22T11:59:07;99568.41;;;22.81;45.94
13690;BME280;6917;52.194;9.894;2023-04-22T12:01:33;99548.91;;;22.81;45.70
13690;BME280;6917;52.194;9.894;2023-04-22T12:04:02;99562.47;;;22.82;47.32
13690;BME280;6917;52.194;9.894;2023-04-22T12:06:29;99560.06;;;22.81;46.46
13690;BME280;6917;52.194;9.894;2023-04-22T12:08:56;99547.25;;;22.53;45.74
13690;BME280;6917;52.194;9.894;2023-04-22T12:11:21;99531.78;;;22.48;45.17
13690;BME280;6917;52.194;9.894;2023-04-22T12:13:49;99557.81;;;22.69;46.78
13690;BME280;6917;52.194;9.894;2023-04-22T12:16:20;99543.81;;;22.76;46.04
13690;BME280;6917;52.194;9.894;2023-04-22T12:18:52;99532.97;;;22.85;45.53
13690;BME280;6917;52.194;9.894;2023-04-22T12:21:24;99543.91;;;23.03;46.09
13690;BME280;6917;52.194;9.894;2023-04-22T12:24:07;99541.03;;;23.10;45.80
13690;BME280;6917;52.194;9.894;2023-04-22T12:26:35;99520.50;;;22.97;44.75
13690;BME280;6917;52.194;9.894;2023-04-22T12:29:04;99520.13;;;22.95;44.91
13690;BME280;6917;52.194;9.894;2023-04-22T12:31:30;99507.34;;;23.01;43.09
13690;BME280;6917;52.194;9.894;2023-04-22T12:33:58;99518.59;;;22.90;42.88
13690;BME280;6917;52.194;9.894;2023-04-22T12:36:31;99519.72;;;22.96;44.27
13690;BME280;6917;52.194;9.894;2023-04-22T12:39:02;99516.66;;;22.87;44.72
13690;BME280;6917;52.194;9.894;2023-04-22T12:41:28;99503.88;;;22.90;44.12
13690;BME280;6917;52.194;9.894;2023-04-22T12:43:54;99492.63;;;23.00;42.02
13690;BME280;6917;52.194;9.894;2023-04-22T12:46:20;99499.41;;;22.96;42.37
13690;BME280;6917;52.194;9.894;2023-04-22T12:48:48;99493.41;;;22.97;42.30
13690;BME280;6917;52.194;9.894;2023-04-22T12:51:13;99504.31;;;22.88;42.95
13690;BME280;6917;52.194;9.894;2023-04-22T12:53:38;99486.84;;;22.84;41.70
13690;BME280;6917;52.194;9.894;2023-04-22T12:56:06;99473.91;;;22.67;40.44
13690;BME280;6917;52.194;9.894;2023-04-22T12:58:35;99473.09;;;22.66;40.29
13690;BME280;6917;52.194;9.894;2023-04-22T13:01:07;99476.25;;;22.68;40.01
13690;BME280;6917;52.194;9.894;2023-04-22T13:03:33;99472.69;;;22.68;41.23
13690;BME280;6917;52.194;9.894;2023-04-22T13:06:01;99473.03;;;22.73;39.70
13690;BME280;6917;52.194;9.894;2023-04-22T13:08:26;99472.94;;;22.80;40.30
13690;BME280;6917;52.194;9.894;2023-04-22T13:10:56;99456.63;;;22.82;39.21
13690;BME280;6917;52.194;9.894;2023-04-22T13:13:21;99473.09;;;23.00;41.26
13690;BME280;6917;52.194;9.894;2023-04-22T13:15:47;99468.38;;;23.24;41.97
13690;BME280;6917;52.194;9.894;2023-04-22T13:18:17;99464.03;;;23.47;41.26
13690;BME280;6917;52.194;9.894;2023-04-22T13:20:42;99472.66;;;23.56;41.43
13690;BME280;6917;52.194;9.894;2023-04-22T13:23:08;99454.91;;;23.46;41.21
13690;BME280;6917;52.194;9.894;2023-04-22T13:25:46;99474.78;;;23.48;42.29
13690;BME280;6917;52.194;9.894;2023-04-22T13:28:16;99448.28;;;23.36;40.31
13690;BME280;6917;52.194;9.894;2023-04-22T13:30:48;99448.91;;;23.21;40.05
13690;BME280;6917;52.194;9.894;2023-04-22T13:33:22;99451.22;;;23.26;41.21
13690;BME280;6917;52.194;9.894;2023-04-22T13:35:49;99461.63;;;23.22;41.18
13690;BME280;6917;52.194;9.894;2023-04-22T13:38:18;99461.91;;;23.31;42.33